createdAt,value
2022-11-18T00:00:10.250Z,97307.78
2022-11-18T00:02:40.546Z,97298.44
2022-11-18T00:05:09.657Z,97296.38
2022-11-18T00:07:38.451Z,97304.00
2022-11-18T00:10:08.011Z,97303.72
2022-11-18T00:13:05.865Z,97297.63
2022-11-18T00:15:34.608Z,97307.53
2022-11-18T00:18:04.888Z,97302.47
2022-11-18T00:20:35.235Z,97301.97
2022-11-18T00:23:04.021Z,97299.56
2022-11-18T00:25:34.915Z,97303.81
2022-11-18T00:28:03.649Z,97307.00
2022-11-18T00:30:32.379Z,97307.25
2022-11-18T00:33:01.133Z,97311.00
2022-11-18T00:35:31.249Z,97311.31
2022-11-18T00:37:59.965Z,97299.38
2022-11-18T00:40:28.692Z,97302.63
2022-11-18T00:42:56.439Z,97313.53
2022-11-18T00:45:25.734Z,97305.31
2022-11-18T00:47:54.444Z,97310.63
2022-11-18T00:50:23.138Z,97304.28
2022-11-18T00:52:53.271Z,97302.44
2022-11-18T00:55:21.989Z,97308.28
2022-11-18T00:57:50.720Z,97306.69
2022-11-18T01:00:20.626Z,97305.63
2022-11-18T01:02:49.689Z,97303.50
2022-11-18T01:05:18.984Z,97303.41
2022-11-18T01:07:48.408Z,97304.50
2022-11-18T01:10:19.364Z,97307.75
2022-11-18T01:13:06.065Z,97312.56
2022-11-18T01:15:41.133Z,97323.91
2022-11-18T01:18:09.980Z,97316.25
2022-11-18T01:20:39.337Z,97314.16
2022-11-18T01:23:08.019Z,97314.72
2022-11-18T01:25:40.847Z,97312.63
2022-11-18T01:28:09.717Z,97311.56
2022-11-18T01:30:41.616Z,97306.78
2022-11-18T01:33:10.604Z,97304.97
2022-11-18T01:35:41.934Z,97295.91
2022-11-18T01:38:12.951Z,97299.13
2022-11-18T01:40:43.490Z,97302.59
2022-11-18T01:43:17.653Z,97303.66
2022-11-18T01:45:50.075Z,97307.09
2022-11-18T01:48:24.887Z,97302.59
2022-11-18T01:50:59.338Z,97303.13
2022-11-18T01:53:34.949Z,97304.75
2022-11-18T01:56:13.575Z,97303.84
2022-11-18T01:58:51.389Z,97304.31
2022-11-18T02:01:20.998Z,97300.13
2022-11-18T02:03:51.759Z,97296.72
2022-11-18T02:06:21.118Z,97296.22
2022-11-18T02:08:51.947Z,97297.81
2022-11-18T02:11:39.494Z,97293.06
2022-11-18T02:14:11.593Z,97300.25
2022-11-18T02:16:58.019Z,97304.25
2022-11-18T02:20:00.727Z,97299.44
2022-11-18T02:22:53.920Z,97307.34
2022-11-18T02:25:41.026Z,97312.97
2022-11-18T02:28:38.239Z,97300.00
2022-11-18T02:31:17.325Z,97291.75
2022-11-18T02:33:56.512Z,97291.28
2022-11-18T02:36:41.421Z,97277.72
2022-11-18T02:39:18.342Z,97287.28
2022-11-18T02:41:50.960Z,97290.53
2022-11-18T02:44:24.093Z,97291.31
2022-11-18T02:47:02.084Z,97285.22
2022-11-18T02:49:39.097Z,97286.81
2022-11-18T02:52:12.169Z,97283.88
2022-11-18T02:54:44.537Z,97275.84
2022-11-18T02:57:16.634Z,97286.44
2022-11-18T02:59:45.380Z,97278.50
2022-11-18T03:02:19.992Z,97275.59
2022-11-18T03:04:54.223Z,97288.91
2022-11-18T03:07:31.291Z,97283.09
2022-11-18T03:10:02.396Z,97285.50
2022-11-18T03:12:44.440Z,97282.56
2022-11-18T03:15:28.183Z,97281.78
2022-11-18T03:18:08.774Z,97282.03
2022-11-18T03:20:46.490Z,97289.22
2022-11-18T03:23:26.496Z,97290.00
2022-11-18T03:26:01.547Z,97288.94
2022-11-18T03:28:41.337Z,97283.38
2022-11-18T03:31:20.944Z,97287.91
2022-11-18T03:33:57.740Z,97288.94
2022-11-18T03:36:34.776Z,97288.41
2022-11-18T03:39:07.888Z,97291.88
2022-11-18T03:41:57.606Z,97297.44
2022-11-18T03:44:34.072Z,97296.97
2022-11-18T03:47:09.873Z,97301.03
2022-11-18T03:49:46.938Z,97300.00
2022-11-18T03:52:21.842Z,97297.88
2022-11-18T03:54:57.106Z,97304.78
2022-11-18T03:57:35.981Z,97309.56
2022-11-18T04:00:10.055Z,97315.75
2022-11-18T04:02:39.832Z,97313.41
2022-11-18T04:05:14.700Z,97308.38
2022-11-18T04:07:57.541Z,97309.97
2022-11-18T04:10:34.466Z,97325.72
2022-11-18T04:13:09.203Z,97320.94
2022-11-18T04:15:40.632Z,97326.25
2022-11-18T04:18:10.659Z,97329.47
2022-11-18T04:20:41.285Z,97330.50
2022-11-18T04:23:10.501Z,97331.56
2022-11-18T04:25:39.489Z,97330.25
2022-11-18T04:28:08.335Z,97331.09
2022-11-18T04:30:37.538Z,97324.94
2022-11-18T04:33:06.483Z,97324.00
2022-11-18T04:35:35.182Z,97326.97
2022-11-18T04:38:06.430Z,97326.91
2022-11-18T04:40:35.168Z,97338.06
2022-11-18T04:43:04.178Z,97332.28
2022-11-18T04:45:32.858Z,97333.16
2022-11-18T04:48:03.823Z,97325.47
2022-11-18T04:50:32.739Z,97325.72
2022-11-18T04:53:01.518Z,97320.47
2022-11-18T04:55:31.626Z,97327.69
2022-11-18T04:58:00.411Z,97324.97
2022-11-18T05:00:29.368Z,97331.91
2022-11-18T05:02:58.164Z,97324.72
2022-11-18T05:05:27.196Z,97331.38
2022-11-18T05:07:55.978Z,97332.44
2022-11-18T05:10:25.981Z,97341.47
2022-11-18T05:17:57.363Z,97344.94
2022-11-18T05:20:24.850Z,97347.91
2022-11-18T05:22:53.633Z,97352.19
2022-11-18T05:25:22.531Z,97357.94
2022-11-18T05:27:51.316Z,97345.13
2022-11-18T05:30:23.336Z,97354.72
2022-11-18T05:32:52.102Z,97353.91
2022-11-18T05:35:22.235Z,97357.44
2022-11-18T05:37:51.284Z,97356.63
2022-11-18T05:40:20.184Z,97362.28
2022-11-18T05:43:06.670Z,97365.47
2022-11-18T05:45:35.562Z,97367.66
2022-11-18T05:48:05.669Z,97374.34
2022-11-18T05:50:39.760Z,97374.00
2022-11-18T05:53:08.538Z,97378.53
2022-11-18T05:55:43.473Z,97374.34
2022-11-18T05:58:12.128Z,97371.94
2022-11-18T06:00:41.625Z,97384.16
2022-11-18T06:03:26.116Z,97386.16
2022-11-18T06:06:03.108Z,97390.66
2022-11-18T06:08:41.005Z,97402.09
2022-11-18T06:11:16.006Z,97410.34
2022-11-18T06:13:51.737Z,97414.81
2022-11-18T06:16:27.869Z,97418.97
2022-11-18T06:18:57.242Z,97416.31
2022-11-18T06:21:27.722Z,97417.13
2022-11-18T06:23:57.047Z,97416.56
2022-11-18T06:26:25.980Z,97420.84
2022-11-18T06:28:56.725Z,97421.63
2022-11-18T06:31:25.417Z,97424.53
2022-11-18T06:33:54.160Z,97431.13
2022-11-18T06:36:22.895Z,97434.84
2022-11-18T06:38:52.967Z,97442.28
2022-11-18T06:41:21.736Z,97436.97
2022-11-18T06:43:49.394Z,97436.38
2022-11-18T06:46:36.558Z,97441.94
2022-11-18T06:49:05.688Z,97446.97
2022-11-18T06:51:34.453Z,97450.66
2022-11-18T06:54:09.204Z,97454.06
2022-11-18T06:56:39.843Z,97454.28
2022-11-18T06:59:08.560Z,97453.72
2022-11-18T07:01:40.051Z,97458.75
2022-11-18T07:04:08.879Z,97458.50
2022-11-18T07:06:38.661Z,97460.53
2022-11-18T07:09:09.270Z,97466.94
2022-11-18T07:11:40.461Z,97464.94
2022-11-18T07:14:09.724Z,97472.59
2022-11-18T07:16:38.954Z,97479.72
2022-11-18T07:19:12.111Z,97477.63
2022-11-18T07:21:42.712Z,97475.28
2022-11-18T07:24:16.335Z,97478.19
2022-11-18T07:26:45.344Z,97482.38
2022-11-18T07:29:14.170Z,97489.28
2022-11-18T07:31:42.908Z,97491.38
2022-11-18T07:34:11.720Z,97498.00
2022-11-18T07:36:40.733Z,97492.00
2022-11-18T07:44:12.902Z,97498.78
2022-11-18T07:46:42.242Z,97495.56
2022-11-18T07:49:12.839Z,97500.56
2022-11-18T07:51:42.179Z,97497.97
2022-11-18T07:54:13.311Z,97501.41
2022-11-18T07:56:42.197Z,97503.28
2022-11-18T07:59:11.205Z,97502.75
2022-11-18T08:01:41.428Z,97509.03
2022-11-18T08:04:15.353Z,97506.78
2022-11-18T08:06:44.059Z,97507.28
2022-11-18T08:09:13.525Z,97507.94
2022-11-18T08:11:42.331Z,97512.66
2022-11-18T08:14:11.157Z,97512.28
2022-11-18T08:16:41.274Z,97518.06
2022-11-18T08:19:09.969Z,97516.75
2022-11-18T08:21:38.750Z,97511.44
2022-11-18T08:24:08.172Z,97519.94
2022-11-18T08:26:37.104Z,97519.94
2022-11-18T08:29:05.885Z,97519.78
2022-11-18T08:31:34.613Z,97523.28
2022-11-18T08:34:07.626Z,97529.72
2022-11-18T08:36:39.273Z,97525.56
2022-11-18T08:39:12.780Z,97544.03
2022-11-18T08:41:44.031Z,97531.03
2022-11-18T08:44:15.888Z,97537.28
2022-11-18T08:46:46.111Z,97542.47
2022-11-18T08:49:16.817Z,97538.56
2022-11-18T08:51:45.930Z,97543.88
2022-11-18T08:54:14.859Z,97547.47
2022-11-18T08:56:43.610Z,97552.97
2022-11-18T08:59:14.773Z,97552.63
2022-11-18T09:01:43.768Z,97554.00
2022-11-18T09:04:12.768Z,97557.44
2022-11-18T09:06:42.924Z,97557.44
2022-11-18T09:09:12.082Z,97555.47
2022-11-18T09:11:42.486Z,97558.72
2022-11-18T09:15:11.630Z,97562.75
2022-11-18T09:17:02.972Z,97563.56
2022-11-18T09:19:46.767Z,97566.91
2022-11-18T09:22:17.986Z,97568.53
2022-11-18T09:24:46.716Z,97575.47
2022-11-18T09:27:17.494Z,97572.47
2022-11-18T09:29:47.076Z,97582.97
2022-11-18T09:32:15.886Z,97583.09
2022-11-18T09:34:44.738Z,97593.25
2022-11-18T09:37:13.586Z,97588.63
2022-11-18T09:39:43.764Z,97585.66
2022-11-18T09:42:35.473Z,97586.66
2022-11-18T09:45:23.629Z,97602.47
2022-11-18T09:47:55.978Z,97603.97
2022-11-18T09:53:21.911Z,97602.25
2022-11-18T09:55:54.209Z,97612.50
2022-11-18T09:58:35.356Z,97613.28
2022-11-18T10:01:10.191Z,97612.97
2022-11-18T10:03:41.699Z,97617.91
2022-11-18T10:13:43.486Z,97621.69
2022-11-18T10:16:30.488Z,97624.06
2022-11-18T10:19:11.094Z,97626.72
2022-11-18T10:21:58.608Z,97629.94
2022-11-18T10:24:34.719Z,97632.25
2022-11-18T10:27:03.811Z,97643.22
2022-11-18T10:29:33.966Z,97649.53
2022-11-18T10:32:06.304Z,97647.78
2022-11-18T10:34:48.911Z,97649.88
2022-11-18T10:37:45.296Z,97656.09
2022-11-18T10:40:28.539Z,97657.25
2022-11-18T10:42:57.889Z,97662.75
2022-11-18T10:45:31.363Z,97669.06
2022-11-18T10:48:09.882Z,97668.66
2022-11-18T10:50:42.206Z,97676.00
2022-11-18T10:53:32.759Z,97680.94
2022-11-18T10:56:04.172Z,97686.59
2022-11-18T10:58:38.229Z,97692.63
2022-11-18T11:01:15.485Z,97692.63
2022-11-18T11:04:02.134Z,97698.06
2022-11-18T11:06:38.210Z,97701.72
2022-11-18T11:09:29.017Z,97710.31
2022-11-18T11:12:04.025Z,97710.66
2022-11-18T11:14:51.180Z,97707.34
2022-11-18T11:17:32.263Z,97709.91
2022-11-18T11:20:11.694Z,97710.97
2022-11-18T11:22:41.823Z,97709.53
2022-11-18T11:25:17.155Z,97708.22
2022-11-18T11:30:52.399Z,97708.25
2022-11-18T11:33:34.455Z,97719.72
2022-11-18T11:36:43.360Z,97714.91
2022-11-18T11:40:01.766Z,97717.78
2022-11-18T11:42:48.772Z,97724.56
2022-11-18T11:45:33.241Z,97732.06
2022-11-18T11:48:32.282Z,97742.09
2022-11-18T11:51:08.382Z,97741.19
2022-11-18T11:54:41.477Z,97741.63
2022-11-18T11:57:24.794Z,97740.88
2022-11-18T12:00:03.901Z,97738.75
2022-11-18T12:03:02.004Z,97732.22
2022-11-18T12:05:37.048Z,97737.44
2022-11-18T12:08:14.143Z,97742.97
2022-11-18T12:10:51.824Z,97750.44
2022-11-18T12:13:37.889Z,97741.13
2022-11-18T12:16:28.105Z,97742.50
2022-11-18T12:19:02.460Z,97749.84
2022-11-18T12:22:00.758Z,97755.06
2022-11-18T12:24:34.465Z,97758.47
2022-11-18T12:27:12.560Z,97760.44
2022-11-18T12:29:55.982Z,97767.47
2022-11-18T12:32:36.711Z,97769.19
2022-11-18T12:35:26.256Z,97768.75
2022-11-18T12:38:05.436Z,97776.56
2022-11-18T12:40:47.229Z,97772.44
2022-11-18T12:44:07.391Z,97776.84
2022-11-18T12:47:00.808Z,97781.75
2022-11-18T12:50:14.322Z,97785.38
2022-11-18T12:52:57.017Z,97787.16
2022-11-18T12:55:39.390Z,97781.75
2022-11-18T12:58:25.725Z,97790.72
2022-11-18T13:01:09.478Z,97800.09
2022-11-18T13:03:38.263Z,97794.97
2022-11-18T13:06:21.803Z,97791.44
2022-11-18T13:08:55.929Z,97794.00
2022-11-18T13:11:46.870Z,97800.25
2022-11-18T13:14:41.841Z,97798.47
2022-11-18T13:17:49.073Z,97802.94
2022-11-18T13:20:31.131Z,97812.13
2022-11-18T13:23:19.968Z,97813.50
2022-11-18T13:25:51.434Z,97813.09
2022-11-18T13:28:33.266Z,97819.47
2022-11-18T13:31:10.918Z,97822.34
2022-11-18T13:33:42.096Z,97832.09
2022-11-18T13:36:19.609Z,97828.25
2022-11-18T13:38:58.613Z,97831.25
2022-11-18T13:41:32.802Z,97832.56
2022-11-18T13:44:20.707Z,97834.09
2022-11-18T13:46:53.992Z,97835.09
2022-11-18T13:49:50.368Z,97852.41
2022-11-18T13:52:25.963Z,97852.06
2022-11-18T13:54:57.181Z,97855.31
2022-11-18T13:57:29.664Z,97860.16
2022-11-18T14:00:07.137Z,97859.81
2022-11-18T14:02:46.411Z,97869.63
2022-11-18T14:05:22.003Z,97874.47
2022-11-18T14:08:06.214Z,97874.91
2022-11-18T14:10:43.918Z,97886.50
2022-11-18T14:13:26.110Z,97888.63
2022-11-18T14:15:59.702Z,97892.66
2022-11-18T14:18:34.151Z,97903.44
2022-11-18T14:21:06.564Z,97903.03
2022-11-18T14:23:38.154Z,97908.94
2022-11-18T14:26:09.037Z,97903.91
2022-11-18T14:28:39.724Z,97907.97
2022-11-18T14:31:27.263Z,97910.22
2022-11-18T14:34:17.585Z,97916.94
2022-11-18T14:36:47.904Z,97910.47
2022-11-18T14:39:31.578Z,97913.72
2022-11-18T14:42:01.871Z,97915.31
2022-11-18T14:44:30.798Z,97916.38
2022-11-18T14:47:21.174Z,97917.59
2022-11-18T14:49:50.120Z,97927.94
2022-11-18T14:52:18.835Z,97931.22
2022-11-18T14:54:48.858Z,97934.66
2022-11-18T14:57:19.193Z,97925.94
2022-11-18T14:59:48.108Z,97936.06
2022-11-18T15:02:19.653Z,97938.94
2022-11-18T15:04:50.817Z,97948.69
2022-11-18T15:07:23.945Z,97953.16
2022-11-18T15:09:53.175Z,97950.28
2022-11-18T15:12:22.009Z,97957.63
2022-11-18T15:14:50.955Z,97963.69
2022-11-18T15:17:21.122Z,97966.94
2022-11-18T15:19:49.918Z,97973.25
2022-11-18T15:22:18.688Z,97974.88
2022-11-18T15:24:47.356Z,97975.66
2022-11-18T15:27:16.139Z,97975.47
2022-11-18T15:29:44.940Z,97976.09
2022-11-18T15:32:13.648Z,97981.16
2022-11-18T15:34:43.791Z,97987.25
2022-11-18T15:37:13.983Z,97989.47
2022-11-18T15:39:42.897Z,97981.53
2022-11-18T15:42:12.255Z,97986.44
2022-11-18T15:44:41.074Z,97994.97
2022-11-18T15:47:09.820Z,98002.66
2022-11-18T15:49:43.176Z,98009.13
2022-11-18T15:52:13.979Z,98016.88
2022-11-18T15:54:42.780Z,98023.97
2022-11-18T15:57:11.726Z,98020.53
2022-11-18T15:59:40.850Z,98022.13
2022-11-18T16:02:12.053Z,98030.25
2022-11-18T16:04:41.177Z,98039.59
2022-11-18T16:07:10.183Z,98037.78
2022-11-18T16:09:57.835Z,98035.94
2022-11-18T16:12:44.198Z,98039.16
2022-11-18T16:15:30.430Z,98057.47
2022-11-18T16:17:59.580Z,98053.81
2022-11-18T16:20:29.170Z,98056.66
2022-11-18T16:23:00.697Z,98060.09
2022-11-18T16:25:30.892Z,98059.47
2022-11-18T16:28:06.814Z,98071.66
2022-11-18T16:31:02.387Z,98075.72
2022-11-18T16:33:31.250Z,98074.09
2022-11-18T16:36:00.147Z,98070.84
2022-11-18T16:38:28.974Z,98068.59
2022-11-18T16:41:00.625Z,98078.09
2022-11-18T16:43:29.535Z,98086.63
2022-11-18T16:45:58.204Z,98083.41
2022-11-18T16:48:26.895Z,98085.19
2022-11-18T16:51:20.383Z,98092.34
2022-11-18T16:53:54.023Z,98086.06
2022-11-18T16:56:26.959Z,98086.47
2022-11-18T16:58:59.643Z,98084.66
2022-11-18T17:01:30.544Z,98092.38
2022-11-18T17:04:01.395Z,98094.63
2022-11-18T17:06:32.695Z,98098.09
2022-11-18T17:09:01.655Z,98092.41
2022-11-18T17:11:32.835Z,98099.13
2022-11-18T17:14:03.473Z,98097.69
2022-11-18T17:16:32.456Z,98097.47
2022-11-18T17:19:10.189Z,98108.03
2022-11-18T17:21:40.901Z,98115.13
2022-11-18T17:24:12.152Z,98120.59
2022-11-18T17:26:43.257Z,98124.88
2022-11-18T17:29:15.034Z,98134.81
2022-11-18T17:31:44.293Z,98127.91
2022-11-18T17:34:15.552Z,98133.97
2022-11-18T17:36:45.298Z,98141.44
2022-11-18T17:39:16.129Z,98133.69
2022-11-18T17:42:07.539Z,98137.97
2022-11-18T17:44:36.490Z,98139.75
2022-11-18T17:47:05.996Z,98147.88
2022-11-18T17:49:34.837Z,98143.00
2022-11-18T17:52:03.780Z,98154.81
2022-11-18T17:54:32.891Z,98154.19
2022-11-18T17:57:03.174Z,98161.06
2022-11-18T17:59:32.908Z,98164.94
2022-11-18T18:02:02.123Z,98164.09
2022-11-18T18:04:31.013Z,98167.34
2022-11-18T18:06:59.909Z,98167.59
2022-11-18T18:09:31.296Z,98172.25
2022-11-18T18:12:23.556Z,98173.44
2022-11-18T18:14:52.588Z,98172.19
2022-11-18T18:17:22.018Z,98170.97
2022-11-18T18:19:50.712Z,98180.28
2022-11-18T18:22:19.483Z,98179.28
2022-11-18T18:24:48.396Z,98178.53
2022-11-18T18:27:18.866Z,98184.94
2022-11-18T18:29:47.644Z,98173.63
2022-11-18T18:32:16.439Z,98180.59
2022-11-18T18:34:45.127Z,98188.34
2022-11-18T18:37:14.968Z,98188.78
2022-11-18T18:39:43.778Z,98196.47
2022-11-18T18:42:12.613Z,98202.00
2022-11-18T18:45:00.521Z,98209.13
2022-11-18T18:47:29.694Z,98210.34
2022-11-18T18:49:58.691Z,98220.03
2022-11-18T18:52:27.600Z,98221.88
2022-11-18T18:54:56.834Z,98207.88
2022-11-18T18:57:26.439Z,98209.13
2022-11-18T18:59:56.555Z,98204.50
2022-11-18T19:02:25.304Z,98220.50
2022-11-18T19:04:55.561Z,98222.13
2022-11-18T19:07:24.518Z,98216.91
2022-11-18T19:09:53.352Z,98220.72
2022-11-18T19:12:40.561Z,98221.28
2022-11-18T19:15:12.945Z,98234.84
2022-11-18T19:17:42.681Z,98234.47
2022-11-18T19:20:31.749Z,98228.19
2022-11-18T19:23:05.612Z,98226.69
2022-11-18T19:25:37.878Z,98229.72
2022-11-18T19:28:06.972Z,98230.22
2022-11-18T19:30:37.153Z,98235.84
2022-11-18T19:33:06.085Z,98244.38
2022-11-18T19:35:35.114Z,98240.00
2022-11-18T19:38:03.845Z,98234.53
2022-11-18T19:40:32.511Z,98239.22
2022-11-18T19:43:01.219Z,98246.13
2022-11-18T19:45:30.156Z,98246.69
2022-11-18T19:48:01.850Z,98255.41
2022-11-18T19:50:30.900Z,98261.25
2022-11-18T19:53:19.733Z,98259.88
2022-11-18T19:55:55.955Z,98252.78
2022-11-18T19:58:26.080Z,98251.84
2022-11-18T20:00:55.236Z,98252.22
2022-11-18T20:03:25.606Z,98261.94
2022-11-18T20:05:54.331Z,98267.09
2022-11-18T20:08:25.411Z,98276.81
2022-11-18T20:10:54.848Z,98273.94
2022-11-18T20:13:23.724Z,98272.69
2022-11-18T20:15:53.066Z,98266.66
2022-11-18T20:18:23.285Z,98276.63
2022-11-18T20:20:53.634Z,98274.16
2022-11-18T20:23:22.566Z,98281.91
2022-11-18T20:25:51.514Z,98284.97
2022-11-18T20:28:20.356Z,98280.50
2022-11-18T20:30:53.928Z,98279.13
2022-11-18T20:33:23.071Z,98280.44
2022-11-18T20:35:53.379Z,98285.34
2022-11-18T20:38:22.200Z,98294.69
2022-11-18T20:40:51.600Z,98296.31
2022-11-18T20:43:21.825Z,98291.03
2022-11-18T20:45:56.113Z,98298.75
2022-11-18T20:48:25.607Z,98298.34
2022-11-18T20:50:55.943Z,98303.16
2022-11-18T20:53:26.732Z,98313.72
2022-11-18T20:55:56.087Z,98314.38
2022-11-18T20:58:25.460Z,98307.47
2022-11-18T21:01:01.568Z,98312.25
2022-11-18T21:03:31.252Z,98299.88
2022-11-18T21:06:12.504Z,98306.34
2022-11-18T21:08:43.772Z,98313.56
2022-11-18T21:11:14.583Z,98313.44
2022-11-18T21:14:01.062Z,98307.97
2022-11-18T21:16:38.779Z,98307.09
2022-11-18T21:19:17.021Z,98318.53
2022-11-18T21:21:49.230Z,98320.16
2022-11-18T21:24:20.718Z,98308.59
2022-11-18T21:26:54.518Z,98313.50
2022-11-18T21:29:25.927Z,98318.38
2022-11-18T21:31:55.594Z,98321.78
2022-11-18T21:34:24.974Z,98324.41
2022-11-18T21:36:55.559Z,98325.03
2022-11-18T21:39:25.478Z,98322.41
2022-11-18T21:41:57.287Z,98327.06
2022-11-18T21:44:28.189Z,98325.44
2022-11-18T21:46:58.685Z,98327.88
2022-11-18T21:49:27.860Z,98335.97
2022-11-18T21:51:57.962Z,98342.88
2022-11-18T21:54:26.751Z,98344.88
2022-11-18T21:56:55.645Z,98348.16
2022-11-18T21:59:24.431Z,98335.78
2022-11-18T22:02:07.309Z,98349.78
2022-11-18T22:04:53.754Z,98356.44
2022-11-18T22:07:25.572Z,98360.34
2022-11-18T22:09:55.299Z,98360.19
2022-11-18T22:12:24.130Z,98363.59
2022-11-18T22:14:52.962Z,98355.31
2022-11-18T22:17:21.722Z,98351.16
2022-11-18T22:19:50.421Z,98358.00
2022-11-18T22:22:19.182Z,98354.81
2022-11-18T22:24:49.308Z,98357.19
2022-11-18T22:27:18.044Z,98364.88
2022-11-18T22:29:46.764Z,98366.97
2022-11-18T22:32:15.459Z,98360.94
2022-11-18T22:34:47.961Z,98362.03
2022-11-18T22:37:19.335Z,98359.19
2022-11-18T22:39:49.404Z,98371.16
2022-11-18T22:42:35.611Z,98374.94
2022-11-18T22:45:04.380Z,98367.94
2022-11-18T22:47:33.271Z,98382.66
2022-11-18T22:50:01.978Z,98384.81
2022-11-18T22:52:30.765Z,98379.00
2022-11-18T22:55:00.953Z,98379.47
2022-11-18T22:57:35.153Z,98378.88
2022-11-18T23:00:04.864Z,98387.72
2022-11-18T23:02:33.626Z,98387.53
2022-11-18T23:05:02.339Z,98382.91
2022-11-18T23:07:31.118Z,98393.72
2022-11-18T23:10:01.675Z,98402.25
2022-11-18T23:12:48.049Z,98407.53
2022-11-18T23:15:16.988Z,98405.88
2022-11-18T23:17:45.752Z,98408.34
2022-11-18T23:20:14.592Z,98419.88
2022-11-18T23:22:43.373Z,98426.72
2022-11-18T23:25:13.532Z,98425.16
2022-11-18T23:27:42.323Z,98428.06
2022-11-18T23:30:12.605Z,98427.34
2022-11-18T23:32:41.452Z,98435.06
2022-11-18T23:35:10.679Z,98429.34
2022-11-18T23:37:39.394Z,98429.28
2022-11-18T23:40:10.232Z,98427.91
2022-11-18T23:42:40.337Z,98419.28
2022-11-18T23:45:10.860Z,98415.63
2022-11-18T23:47:39.669Z,98419.91
2022-11-18T23:50:09.668Z,98422.09
2022-11-18T23:52:41.764Z,98439.47
2022-11-18T23:55:11.380Z,98435.94
2022-11-18T23:57:41.504Z,98438.19
